createdAt,value
2019-04-30T00:00:08.849Z,5.52
2019-04-30T00:02:40.174Z,5.46
2019-04-30T00:05:14.199Z,5.54
2019-04-30T00:07:41.005Z,5.50
2019-04-30T00:10:10.800Z,5.45
2019-04-30T00:12:40.345Z,5.46
2019-04-30T00:15:10.901Z,5.45
2019-04-30T00:17:41.111Z,5.47
2019-04-30T00:20:11.790Z,5.45
2019-04-30T00:22:47.155Z,5.42
2019-04-30T00:25:12.620Z,5.47
2019-04-30T00:27:42.102Z,5.41
2019-04-30T00:30:12.029Z,5.45
2019-04-30T00:32:43.588Z,5.39
2019-04-30T00:35:18.125Z,5.45
2019-04-30T00:37:44.980Z,5.33
2019-04-30T00:40:15.475Z,5.30
2019-04-30T00:42:45.780Z,5.38
2019-04-30T00:45:15.570Z,5.30
2019-04-30T00:47:47.912Z,5.34
2019-04-30T00:50:17.355Z,5.39
2019-04-30T00:52:46.833Z,5.33
2019-04-30T00:55:16.312Z,5.31
2019-04-30T00:57:47.384Z,5.24
2019-04-30T01:00:25.318Z,5.16
2019-04-30T01:03:05.883Z,5.37
2019-04-30T01:05:35.317Z,5.24
2019-04-30T01:08:07.037Z,5.26
2019-04-30T01:10:36.414Z,5.17
2019-04-30T01:13:08.266Z,5.29
2019-04-30T01:15:39.061Z,5.22
2019-04-30T01:18:09.350Z,5.39
2019-04-30T01:20:40.676Z,5.26
2019-04-30T01:23:12.022Z,5.40
2019-04-30T01:25:43.272Z,5.42
2019-04-30T01:28:16.435Z,5.35
2019-04-30T01:30:44.159Z,5.26
2019-04-30T01:33:13.651Z,5.34
2019-04-30T01:35:43.131Z,5.25
2019-04-30T01:38:12.926Z,5.30
2019-04-30T01:40:47.528Z,5.28
2019-04-30T01:43:14.947Z,5.29
2019-04-30T01:45:44.411Z,5.23
2019-04-30T01:48:13.955Z,5.29
2019-04-30T01:50:43.448Z,5.32
2019-04-30T01:53:13.326Z,5.24
2019-04-30T01:55:53.533Z,5.37
2019-04-30T01:58:33.366Z,5.29
2019-04-30T02:01:09.011Z,5.33
2019-04-30T02:03:40.068Z,5.31
2019-04-30T02:06:11.574Z,5.30
2019-04-30T02:08:40.815Z,5.25
2019-04-30T02:11:10.304Z,5.35
2019-04-30T02:13:39.787Z,5.31
2019-04-30T02:16:09.358Z,5.23
2019-04-30T02:18:39.392Z,5.24
2019-04-30T02:21:11.461Z,5.23
2019-04-30T02:23:40.213Z,5.36
2019-04-30T02:26:09.725Z,5.22
2019-04-30T02:28:39.409Z,5.26
2019-04-30T02:31:09.277Z,5.22
2019-04-30T02:33:40.658Z,5.36
2019-04-30T02:36:24.965Z,5.31
2019-04-30T02:38:56.329Z,5.55
2019-04-30T02:41:26.338Z,5.39
2019-04-30T02:43:59.849Z,5.41
2019-04-30T02:46:32.286Z,5.37
2019-04-30T02:49:02.245Z,5.42
2019-04-30T02:51:32.839Z,5.39
2019-04-30T02:54:16.059Z,5.32
2019-04-30T02:56:50.448Z,5.31
2019-04-30T02:59:20.244Z,5.50
2019-04-30T03:01:50.352Z,5.54
2019-04-30T03:04:19.966Z,5.36
2019-04-30T03:06:50.225Z,5.36
2019-04-30T03:09:21.327Z,5.39
2019-04-30T03:11:50.843Z,5.22
2019-04-30T03:14:20.480Z,5.42
2019-04-30T03:16:54.281Z,5.55
2019-04-30T03:19:25.401Z,5.36
2019-04-30T03:22:02.517Z,5.41
2019-04-30T03:24:32.016Z,5.33
2019-04-30T03:27:01.778Z,5.33
2019-04-30T03:29:31.260Z,5.33
2019-04-30T03:32:02.533Z,5.33
2019-04-30T03:34:33.179Z,5.20
2019-04-30T03:37:02.942Z,5.25
2019-04-30T03:39:33.937Z,5.16
2019-04-30T03:42:03.802Z,5.22
2019-04-30T03:44:33.286Z,5.19
2019-04-30T03:47:02.782Z,5.20
2019-04-30T03:49:32.298Z,5.34
2019-04-30T03:52:01.761Z,5.35
2019-04-30T03:54:31.291Z,5.33
2019-04-30T03:57:01.132Z,5.28
2019-04-30T03:59:30.751Z,5.22
2019-04-30T04:02:04.613Z,5.26
2019-04-30T04:04:35.775Z,5.35
2019-04-30T04:07:12.560Z,5.21
2019-04-30T04:09:41.851Z,5.25
2019-04-30T04:12:24.681Z,5.20
2019-04-30T04:14:54.218Z,5.27
2019-04-30T04:17:23.883Z,5.29
2019-04-30T04:19:53.368Z,5.37
2019-04-30T04:22:22.855Z,5.27
2019-04-30T04:24:52.386Z,5.33
2019-04-30T04:27:21.894Z,5.34
2019-04-30T04:29:51.769Z,5.34
2019-04-30T04:32:24.364Z,5.46
2019-04-30T04:34:52.481Z,5.32
2019-04-30T04:37:22.012Z,5.20
2019-04-30T04:39:51.539Z,5.35
2019-04-30T04:42:21.023Z,5.31
2019-04-30T04:44:50.623Z,5.26
2019-04-30T04:47:20.484Z,5.25
2019-04-30T04:49:53.563Z,5.27
2019-04-30T04:52:22.017Z,5.36
2019-04-30T04:54:51.761Z,5.39
2019-04-30T04:57:22.997Z,5.43
2019-04-30T04:59:52.702Z,5.48
2019-04-30T05:02:26.826Z,5.52
2019-04-30T05:04:56.820Z,5.47
2019-04-30T05:07:26.300Z,5.44
2019-04-30T05:09:55.790Z,5.36
2019-04-30T05:12:25.287Z,5.53
2019-04-30T05:14:54.778Z,5.51
2019-04-30T05:17:24.265Z,5.31
2019-04-30T05:19:53.749Z,5.36
2019-04-30T05:22:23.245Z,5.43
2019-04-30T05:24:53.981Z,5.44
2019-04-30T05:27:23.454Z,5.49
2019-04-30T05:29:52.936Z,5.43
2019-04-30T05:32:22.428Z,5.37
2019-04-30T05:34:51.903Z,5.36
2019-04-30T05:37:22.667Z,5.53
2019-04-30T05:39:52.110Z,5.44
2019-04-30T05:42:21.607Z,5.46
2019-04-30T05:44:51.094Z,5.44
2019-04-30T05:47:20.579Z,5.49
2019-04-30T05:49:51.364Z,5.43
2019-04-30T05:52:20.834Z,5.51
2019-04-30T05:54:51.828Z,5.54
2019-04-30T05:57:21.298Z,5.56
2019-04-30T05:59:50.782Z,5.56
2019-04-30T06:02:20.270Z,5.51
2019-04-30T06:04:49.920Z,5.52
2019-04-30T06:07:19.519Z,5.48
2019-04-30T06:09:52.808Z,5.58
2019-04-30T06:12:23.994Z,5.69
2019-04-30T06:14:55.127Z,5.71
2019-04-30T06:17:29.403Z,5.66
2019-04-30T06:20:00.195Z,5.63
2019-04-30T06:22:29.770Z,5.68
2019-04-30T06:24:59.527Z,5.44
2019-04-30T06:27:29.253Z,5.42
2019-04-30T06:29:58.805Z,5.43
2019-04-30T06:32:29.522Z,5.47
2019-04-30T06:34:59.361Z,5.46
2019-04-30T06:37:31.570Z,5.45
2019-04-30T06:40:00.659Z,5.53
2019-04-30T06:42:30.383Z,5.52
2019-04-30T06:45:00.132Z,5.55
2019-04-30T06:47:33.279Z,5.47
2019-04-30T06:50:01.538Z,5.56
2019-04-30T06:52:30.999Z,5.62
2019-04-30T06:55:00.523Z,5.56
2019-04-30T06:57:29.996Z,5.62
2019-04-30T07:00:00.013Z,5.66
2019-04-30T07:02:30.901Z,5.67
2019-04-30T07:05:00.464Z,5.86
2019-04-30T07:07:37.002Z,5.67
2019-04-30T07:10:03.459Z,5.72
2019-04-30T07:12:40.345Z,5.60
2019-04-30T07:15:09.899Z,5.67
2019-04-30T07:17:40.676Z,5.56
2019-04-30T07:20:10.539Z,5.59
2019-04-30T07:22:49.000Z,5.64
2019-04-30T07:25:11.703Z,5.67
2019-04-30T07:27:41.229Z,5.66
2019-04-30T07:30:10.878Z,5.71
2019-04-30T07:32:41.504Z,5.70
2019-04-30T07:35:11.086Z,5.57
2019-04-30T07:37:40.625Z,5.69
2019-04-30T07:40:10.214Z,5.68
2019-04-30T07:42:44.893Z,5.66
2019-04-30T07:45:11.981Z,5.69
2019-04-30T07:47:41.512Z,5.92
2019-04-30T07:50:11.681Z,5.82
2019-04-30T07:52:58.165Z,6.03
2019-04-30T07:55:13.429Z,5.93
2019-04-30T07:57:42.963Z,6.00
2019-04-30T08:00:12.803Z,5.92
2019-04-30T08:02:43.976Z,5.74
2019-04-30T08:05:15.382Z,5.51
2019-04-30T08:07:44.949Z,5.59
2019-04-30T08:10:14.701Z,5.85
2019-04-30T08:12:45.071Z,5.86
2019-04-30T08:15:14.992Z,5.82
2019-04-30T08:17:44.752Z,5.84
2019-04-30T08:20:15.918Z,6.08
2019-04-30T08:22:45.739Z,5.98
2019-04-30T08:25:15.203Z,5.98
2019-04-30T08:27:44.757Z,5.92
2019-04-30T08:30:23.955Z,6.04
2019-04-30T08:32:46.059Z,6.14
2019-04-30T08:35:15.604Z,6.26
2019-04-30T08:37:45.421Z,6.26
2019-04-30T08:40:15.087Z,6.51
2019-04-30T08:42:44.717Z,6.44
2019-04-30T08:45:14.546Z,6.38
2019-04-30T08:47:44.159Z,6.48
2019-04-30T08:50:14.332Z,6.44
2019-04-30T08:52:44.189Z,6.48
2019-04-30T08:55:17.170Z,6.45
2019-04-30T08:57:46.951Z,6.62
2019-04-30T09:00:19.537Z,6.48
2019-04-30T09:02:49.471Z,6.57
2019-04-30T09:05:20.678Z,6.38
2019-04-30T09:07:50.254Z,6.54
2019-04-30T09:10:19.812Z,6.53
2019-04-30T09:12:51.890Z,6.45
2019-04-30T09:15:20.850Z,6.31
2019-04-30T09:18:00.774Z,6.32
2019-04-30T09:20:21.670Z,6.39
2019-04-30T09:22:51.169Z,6.61
2019-04-30T09:25:20.646Z,6.65
2019-04-30T09:27:50.156Z,6.58
2019-04-30T09:30:19.729Z,6.61
2019-04-30T09:32:49.965Z,6.71
2019-04-30T09:35:19.735Z,6.62
2019-04-30T09:37:50.862Z,6.76
2019-04-30T09:40:21.171Z,6.61
2019-04-30T09:42:50.859Z,6.66
2019-04-30T09:45:20.480Z,6.69
2019-04-30T09:47:50.550Z,6.79
2019-04-30T09:50:20.326Z,7.02
2019-04-30T09:52:50.529Z,7.11
2019-04-30T09:55:20.117Z,7.08
2019-04-30T09:57:49.996Z,7.30
2019-04-30T10:00:20.039Z,7.07
2019-04-30T10:02:49.578Z,7.28
2019-04-30T10:05:20.305Z,7.31
2019-04-30T10:07:50.178Z,7.46
2019-04-30T10:10:21.544Z,7.36
2019-04-30T10:12:51.094Z,7.43
2019-04-30T10:15:25.012Z,7.40
2019-04-30T10:17:54.513Z,7.31
2019-04-30T10:20:39.935Z,7.37
2019-04-30T10:23:09.593Z,7.34
2019-04-30T10:25:39.609Z,7.57
2019-04-30T10:28:09.972Z,7.38
2019-04-30T10:30:39.758Z,7.37
2019-04-30T10:33:09.992Z,7.37
2019-04-30T10:35:39.681Z,7.49
2019-04-30T10:38:09.856Z,7.42
2019-04-30T10:40:39.605Z,7.48
2019-04-30T10:43:09.222Z,7.39
2019-04-30T10:45:39.211Z,7.47
2019-04-30T10:48:08.845Z,7.31
2019-04-30T10:50:40.722Z,7.54
2019-04-30T10:53:12.247Z,7.54
2019-04-30T10:55:40.796Z,7.79
2019-04-30T10:58:10.314Z,7.81
2019-04-30T11:00:41.931Z,7.98
2019-04-30T11:03:19.946Z,8.01
2019-04-30T11:05:42.906Z,8.16
2019-04-30T11:08:12.371Z,7.95
2019-04-30T11:10:41.868Z,7.97
2019-04-30T11:13:11.413Z,7.72
2019-04-30T11:15:40.908Z,8.05
2019-04-30T11:18:10.663Z,8.07
2019-04-30T11:20:40.282Z,8.06
2019-04-30T11:23:14.733Z,8.04
2019-04-30T11:25:42.199Z,7.92
2019-04-30T11:28:12.699Z,8.02
2019-04-30T11:30:43.165Z,8.27
2019-04-30T11:33:13.161Z,8.02
2019-04-30T11:35:43.009Z,8.18
2019-04-30T11:38:12.509Z,8.52
2019-04-30T11:40:41.969Z,8.55
2019-04-30T11:43:11.533Z,8.96
2019-04-30T11:46:00.037Z,8.81
2019-04-30T11:48:28.970Z,8.98
2019-04-30T11:50:59.528Z,8.93
2019-04-30T11:53:30.728Z,8.68
2019-04-30T11:56:00.297Z,8.49
2019-04-30T11:58:30.551Z,9.06
2019-04-30T12:01:00.572Z,9.01
2019-04-30T12:03:30.356Z,9.15
2019-04-30T12:05:59.911Z,8.88
2019-04-30T12:08:31.073Z,9.01
2019-04-30T12:11:03.251Z,9.32
2019-04-30T12:13:32.912Z,9.33
2019-04-30T12:16:02.910Z,9.57
2019-04-30T12:18:32.516Z,9.38
2019-04-30T12:21:02.056Z,9.55
2019-04-30T12:23:31.549Z,9.36
2019-04-30T12:26:02.845Z,10.02
2019-04-30T12:28:32.266Z,10.77
2019-04-30T12:31:01.743Z,11.52
2019-04-30T12:33:31.233Z,11.27
2019-04-30T12:36:00.713Z,11.64
2019-04-30T12:38:30.311Z,11.65
2019-04-30T12:40:59.799Z,11.48
2019-04-30T12:43:29.298Z,10.45
2019-04-30T12:46:03.350Z,10.07
2019-04-30T12:48:36.119Z,10.10
2019-04-30T12:51:07.853Z,9.90
2019-04-30T12:53:50.865Z,10.18
2019-04-30T12:56:27.831Z,9.81
2019-04-30T12:58:57.314Z,9.76
2019-04-30T13:01:29.793Z,9.86
2019-04-30T13:04:01.364Z,10.76
2019-04-30T13:06:30.832Z,10.65
2019-04-30T13:09:01.291Z,11.34
2019-04-30T13:11:32.005Z,11.60
2019-04-30T13:14:02.221Z,11.74
2019-04-30T13:16:31.965Z,12.30
2019-04-30T13:19:02.142Z,11.72
2019-04-30T13:21:31.617Z,11.70
2019-04-30T13:24:01.118Z,11.74
2019-04-30T13:26:30.613Z,12.05
2019-04-30T13:29:01.774Z,11.75
2019-04-30T13:31:31.257Z,11.84
2019-04-30T13:34:15.171Z,10.84
2019-04-30T13:36:44.635Z,11.28
2019-04-30T13:39:26.892Z,11.27
2019-04-30T13:42:00.395Z,10.67
2019-04-30T13:44:31.534Z,10.79
2019-04-30T13:47:01.021Z,11.49
2019-04-30T13:49:30.511Z,12.25
2019-04-30T13:52:00.001Z,12.23
2019-04-30T13:54:29.508Z,12.37
2019-04-30T13:56:59.169Z,12.53
2019-04-30T13:59:28.664Z,13.67
2019-04-30T14:01:58.797Z,13.45
2019-04-30T14:04:35.470Z,12.84
2019-04-30T14:07:06.587Z,12.52
2019-04-30T14:09:36.071Z,11.88
2019-04-30T14:12:05.713Z,12.26
2019-04-30T14:14:35.261Z,12.32
2019-04-30T14:17:04.830Z,12.87
2019-04-30T14:19:34.319Z,12.06
2019-04-30T14:22:04.397Z,11.80
2019-04-30T14:24:33.879Z,12.32
2019-04-30T14:27:03.442Z,12.39
2019-04-30T14:29:32.936Z,12.09
2019-04-30T14:32:02.448Z,11.95
2019-04-30T14:34:31.943Z,11.45
2019-04-30T14:37:01.509Z,12.10
2019-04-30T14:39:31.216Z,12.40
2019-04-30T14:42:01.622Z,12.26
2019-04-30T14:44:33.865Z,11.83
2019-04-30T14:47:12.630Z,12.34
2019-04-30T14:50:04.899Z,12.35
2019-04-30T14:52:32.719Z,12.62
2019-04-30T14:55:13.919Z,12.55
2019-04-30T14:57:43.187Z,12.39
2019-04-30T15:00:32.019Z,12.72
2019-04-30T15:03:05.873Z,12.28
2019-04-30T15:05:40.605Z,12.17
2019-04-30T15:08:08.491Z,12.19
2019-04-30T15:10:38.149Z,11.96
2019-04-30T15:13:09.593Z,12.32
2019-04-30T15:15:39.226Z,12.22
2019-04-30T15:18:09.312Z,11.95
2019-04-30T15:20:39.828Z,11.99
2019-04-30T15:23:18.899Z,12.17
2019-04-30T15:25:42.441Z,12.20
2019-04-30T15:28:11.929Z,12.13
2019-04-30T15:30:42.135Z,12.06
2019-04-30T15:33:29.385Z,12.05
2019-04-30T15:35:59.917Z,12.04
2019-04-30T15:38:47.214Z,12.24
2019-04-30T15:41:16.900Z,12.16
2019-04-30T15:43:47.468Z,11.93
2019-04-30T15:46:16.962Z,11.96
2019-04-30T15:48:46.489Z,11.74
2019-04-30T15:51:15.998Z,11.37
2019-04-30T15:53:45.504Z,11.45
2019-04-30T15:56:15.838Z,11.63
2019-04-30T15:59:03.042Z,11.68
2019-04-30T16:01:32.622Z,11.63
2019-04-30T16:04:02.742Z,11.45
2019-04-30T16:06:32.267Z,11.52
2019-04-30T16:09:03.397Z,11.68
2019-04-30T16:11:46.397Z,11.15
2019-04-30T16:14:23.180Z,11.28
2019-04-30T16:16:57.069Z,11.08
2019-04-30T16:19:28.711Z,10.92
2019-04-30T16:21:57.952Z,10.73
2019-04-30T16:24:28.711Z,10.78
2019-04-30T16:26:59.387Z,10.67
2019-04-30T16:29:29.026Z,10.49
2019-04-30T16:31:59.147Z,10.45
2019-04-30T16:34:30.498Z,10.58
2019-04-30T16:37:00.241Z,10.37
2019-04-30T16:39:29.764Z,10.45
2019-04-30T16:41:59.375Z,10.54
2019-04-30T16:44:28.930Z,10.38
2019-04-30T16:46:59.662Z,10.49
2019-04-30T16:49:29.204Z,10.60
2019-04-30T16:52:01.363Z,10.56
2019-04-30T16:54:30.857Z,10.46
2019-04-30T16:57:05.950Z,10.75
2019-04-30T16:59:33.325Z,10.67
2019-04-30T17:02:02.996Z,10.61
2019-04-30T17:04:34.186Z,10.45
2019-04-30T17:07:21.216Z,10.32
2019-04-30T17:09:52.362Z,10.31
2019-04-30T17:12:39.126Z,10.18
2019-04-30T17:15:26.438Z,10.44
2019-04-30T17:17:55.923Z,10.28
2019-04-30T17:20:28.601Z,10.32
2019-04-30T17:22:59.597Z,10.31
2019-04-30T17:25:28.916Z,10.18
2019-04-30T17:27:58.890Z,10.13
2019-04-30T17:30:29.622Z,10.31
2019-04-30T17:32:59.724Z,10.25
2019-04-30T17:35:29.524Z,10.01
2019-04-30T17:37:59.067Z,10.24
2019-04-30T17:40:29.163Z,10.32
2019-04-30T17:42:58.769Z,10.15
2019-04-30T17:45:29.200Z,10.16
2019-04-30T17:47:58.712Z,10.24
2019-04-30T17:50:29.607Z,10.09
2019-04-30T17:53:00.714Z,10.04
2019-04-30T17:55:30.228Z,9.88
2019-04-30T17:57:59.742Z,10.05
2019-04-30T18:00:30.939Z,10.19
2019-04-30T18:03:00.884Z,9.93
2019-04-30T18:05:30.367Z,9.84
2019-04-30T18:07:59.927Z,9.96
2019-04-30T18:10:29.572Z,9.92
2019-04-30T18:12:59.099Z,9.99
2019-04-30T18:15:31.007Z,9.99
2019-04-30T18:18:17.973Z,9.89
2019-04-30T18:20:53.089Z,9.81
2019-04-30T18:23:24.207Z,9.67
2019-04-30T18:25:58.033Z,9.66
2019-04-30T18:28:29.144Z,9.68
2019-04-30T18:30:59.093Z,9.61
2019-04-30T18:33:28.603Z,9.64
2019-04-30T18:35:59.677Z,9.62
2019-04-30T18:38:31.125Z,9.52
2019-04-30T18:41:00.557Z,9.52
2019-04-30T18:43:31.191Z,9.32
2019-04-30T18:46:00.815Z,9.43
2019-04-30T18:48:30.345Z,9.43
2019-04-30T18:50:59.833Z,9.54
2019-04-30T18:53:31.004Z,9.36
2019-04-30T18:56:00.502Z,9.55
2019-04-30T18:58:39.202Z,9.55
2019-04-30T19:01:01.275Z,9.44
2019-04-30T19:03:30.767Z,9.33
2019-04-30T19:06:01.883Z,9.38
2019-04-30T19:08:39.471Z,9.44
2019-04-30T19:11:22.662Z,9.25
2019-04-30T19:13:56.420Z,9.43
2019-04-30T19:16:27.634Z,9.57
2019-04-30T19:18:56.894Z,9.20
2019-04-30T19:21:26.889Z,9.37
2019-04-30T19:23:58.581Z,9.13
2019-04-30T19:26:29.316Z,9.19
2019-04-30T19:28:58.856Z,9.10
2019-04-30T19:31:29.601Z,9.22
2019-04-30T19:33:59.172Z,9.36
2019-04-30T19:36:37.257Z,9.38
2019-04-30T19:39:01.182Z,8.97
2019-04-30T19:41:30.660Z,9.08
2019-04-30T19:44:00.169Z,8.88
2019-04-30T19:46:29.651Z,8.98
2019-04-30T19:48:59.978Z,9.20
2019-04-30T19:51:29.678Z,8.83
2019-04-30T19:53:59.856Z,9.25
2019-04-30T19:56:32.515Z,9.37
2019-04-30T19:59:05.149Z,9.04
2019-04-30T20:01:32.104Z,9.20
2019-04-30T20:04:01.679Z,9.11
2019-04-30T20:06:31.154Z,9.15
2019-04-30T20:09:00.878Z,9.08
2019-04-30T20:11:30.342Z,9.18
2019-04-30T20:13:59.835Z,9.33
2019-04-30T20:16:29.365Z,9.28
2019-04-30T20:18:59.260Z,9.12
2019-04-30T20:21:45.375Z,9.14
2019-04-30T20:24:00.293Z,8.84
2019-04-30T20:26:29.817Z,9.08
2019-04-30T20:28:59.304Z,8.95
2019-04-30T20:31:28.901Z,8.83
2019-04-30T20:33:59.124Z,8.90
2019-04-30T20:36:29.564Z,8.92
2019-04-30T20:38:58.821Z,8.87
2019-04-30T20:41:29.466Z,8.72
2019-04-30T20:43:59.222Z,8.69
2019-04-30T20:46:32.624Z,8.76
2019-04-30T20:48:59.915Z,8.68
2019-04-30T20:51:29.440Z,8.54
2019-04-30T20:53:59.263Z,8.56
2019-04-30T20:56:29.204Z,8.49
2019-04-30T20:59:04.146Z,8.57
2019-04-30T21:01:30.348Z,8.80
2019-04-30T21:03:59.980Z,8.55
2019-04-30T21:06:29.805Z,8.81
2019-04-30T21:08:59.330Z,8.73
2019-04-30T21:11:28.834Z,8.76
2019-04-30T21:13:59.122Z,8.62
2019-04-30T21:16:29.145Z,8.61
2019-04-30T21:18:58.764Z,8.28
2019-04-30T21:21:28.804Z,8.47
2019-04-30T21:23:58.816Z,8.43
2019-04-30T21:26:28.304Z,8.41
2019-04-30T21:29:10.428Z,8.13
2019-04-30T21:31:36.426Z,8.23
2019-04-30T21:34:10.402Z,8.30
2019-04-30T21:36:39.851Z,8.33
2019-04-30T21:39:09.351Z,8.35
2019-04-30T21:41:39.558Z,8.29
2019-04-30T21:44:09.072Z,8.42
2019-04-30T21:46:39.512Z,8.43
2019-04-30T21:49:09.030Z,8.38
2019-04-30T21:51:40.099Z,8.26
2019-04-30T21:54:09.651Z,8.28
2019-04-30T21:56:39.170Z,8.38
2019-04-30T21:59:08.657Z,8.31
2019-04-30T22:01:38.353Z,8.41
2019-04-30T22:04:07.818Z,8.25
2019-04-30T22:06:39.360Z,8.29
2019-04-30T22:09:09.853Z,8.38
2019-04-30T22:11:39.604Z,8.39
2019-04-30T22:14:09.249Z,8.01
2019-04-30T22:16:39.765Z,8.20
2019-04-30T22:19:09.981Z,8.42
2019-04-30T22:21:39.741Z,8.41
2019-04-30T22:24:09.251Z,8.56
2019-04-30T22:26:38.733Z,8.30
2019-04-30T22:29:09.194Z,8.55
2019-04-30T22:31:39.627Z,8.38
2019-04-30T22:34:09.217Z,8.39
2019-04-30T22:36:40.318Z,8.38
2019-04-30T22:39:12.245Z,8.41
2019-04-30T22:41:41.718Z,8.15
2019-04-30T22:44:11.303Z,8.37
2019-04-30T22:46:40.778Z,8.34
2019-04-30T22:49:10.267Z,8.38
2019-04-30T22:51:39.769Z,8.33
2019-04-30T22:54:09.244Z,8.26
2019-04-30T22:56:38.735Z,8.21
2019-04-30T22:59:08.247Z,8.23
2019-04-30T23:01:37.498Z,8.16
2019-04-30T23:04:08.673Z,8.15
2019-04-30T23:06:38.153Z,8.18
2019-04-30T23:09:11.223Z,8.24
2019-04-30T23:11:40.874Z,8.16
2019-04-30T23:14:10.366Z,8.19
2019-04-30T23:16:39.887Z,8.16
2019-04-30T23:19:09.402Z,7.97
2019-04-30T23:21:39.308Z,8.06
2019-04-30T23:24:08.823Z,8.07
2019-04-30T23:26:38.578Z,8.03
2019-04-30T23:29:08.061Z,8.00
2019-04-30T23:31:37.569Z,7.98
2019-04-30T23:34:17.417Z,7.97
2019-04-30T23:36:38.329Z,7.86
2019-04-30T23:39:09.686Z,7.92
2019-04-30T23:41:39.167Z,7.88
2019-04-30T23:44:08.641Z,7.78
2019-04-30T23:46:38.150Z,7.69
2019-04-30T23:49:07.620Z,7.55
2019-04-30T23:51:37.169Z,7.45
2019-04-30T23:54:06.699Z,7.38
2019-04-30T23:56:36.215Z,7.08
2019-04-30T23:59:05.803Z,6.80
